KENW/ENW METAR and TAF weather

Enter ICAO airport designator
Station Type Date Time Source
KENW METAR 2021/07/29 18:37 UTC NOAA

KENW 291837Z 05007KT 10SM BKN028 OVC036 28/22 A2993 RMK AO2 T02830217


Station Type Date Time Source
KENW Decoded METAR 2021/07/29 18:37 UTC NOAA

KENOSHA REGIONAL AIRPORT, WI, United States (KENW) 42-36N 087-56W 219M
Jul 29, 2021 - 02:37 PM EDT / 2021.07.29 1837 UTC
Wind: from the NE (050 degrees) at 8 MPH (7 KT):0
Visibility: 10 mile(s):0
Sky conditions: overcast
Temperature: 82.9 F (28.3 C)
Dew Point: 71.1 F (21.7 C)
Relative Humidity: 67%
Pressure (altimeter): 29.93 in. Hg (1013 hPa)
ob: KENW 291837Z 05007KT 10SM BKN028 OVC036 28/22 A2993 RMK AO2 T02830217
cycle: 18

Station Type Date Time Source
KENW TAF 2021/07/29 18:22 UTC NOAA

TAF KENW 291720Z 2918/3018 32013KT P6SM BKN025
FM291900 03012KT P6SM BKN025
FM292100 04012KT P6SM SCT030
FM300000 03011G20KT P6SM FEW040
FM300200 03009KT P6SM FEW250
FM300900 01008KT P6SM FEW250

Example: see airport list